Time;durP1;ratioP1;P1;durP2;ratioP2;P2;SDS_P1;SDS_P2;PMS_P1;PMS_P2;Temp;Humidity;BMP_temperature;BMP_pressure;BME280_temperature;BME280_humidity;BME280_pressure;Samples;Min_cycle;Max_cycle;Signal;HPM_P1;HPM_P2
2020/07/23 06:29:33;;;;;;;6.4;4.9;;;;;;;27.94;46.60547;939.5876;;;;
2020/07/23 06:32:45;;;;;;;5.5;2.2;;;;;;;27.79;50.30664;939.5834;;;;
2020/07/23 06:35:13;;;;;;;2.7;2;;;;;;;27.74;50.68164;939.5754;;;;
2020/07/23 06:37:38;;;;;;;5;2.1;;;;;;;27.43;48.11914;939.5898;;;;
2020/07/23 06:40:10;;;;;;;5.1;2.2;;;;;;;28.11;48.91699;939.533;;;;
2020/07/23 06:42:37;;;;;;;3.4;2;;;;;;;28.51;46.17773;939.5446;;;;
2020/07/23 06:45:02;;;;;;;5;2.6;;;;;;;27.75;47.28711;939.5349;;;;
2020/07/23 06:47:27;;;;;;;7.7;2.6;;;;;;;27.27;48.79004;939.5139;;;;
2020/07/23 06:49:52;;;;;;;4.2;2.2;;;;;;;27.26;48.27832;939.442;;;;
2020/07/23 06:52:20;;;;;;;5;2.6;;;;;;;27.35;47.3877;939.4794;;;;
2020/07/23 06:54:45;;;;;;;5.7;2.9;;;;;;;27.9;50.47266;939.4426;;;;
2020/07/23 06:57:13;;;;;;;6.4;2.6;;;;;;;29.08;48.34375;939.3583;;;;
2020/07/23 06:59:38;;;;;;;4.2;2.1;;;;;;;28.87;43.96484;939.3438;;;;
2020/07/23 07:02:03;;;;;;;4.8;2.2;;;;;;;29.06;44.4834;939.2999;;;;
2020/07/23 07:04:28;;;;;;;4.7;2.2;;;;;;;28.88;44.46484;939.309;;;;
2020/07/23 07:06:54;;;;;;;5.5;2.3;;;;;;;28.3;45.53711;939.3076;;;;
2020/07/23 07:09:20;;;;;;;5.8;2.2;;;;;;;28.52;45;939.2509;;;;
2020/07/23 07:11:52;;;;;;;7.5;2.5;;;;;;;27.92;47.66016;939.2417;;;;
2020/07/23 07:14:20;;;;;;;11.4;2.8;;;;;;;28.89;47.66797;939.228;;;;
2020/07/23 07:16:49;;;;;;;10.9;2.8;;;;;;;29.36;46.78906;939.215;;;;
2020/07/23 07:19:13;;;;;;;8.6;2.4;;;;;;;30.07;43.03125;939.1393;;;;
2020/07/23 07:21:39;;;;;;;4.2;2.3;;;;;;;29.92;43.78125;939.1532;;;;
2020/07/23 07:24:04;;;;;;;7.1;2.2;;;;;;;30.77;41.08984;939.1174;;;;
2020/07/23 07:26:29;;;;;;;4.1;2.1;;;;;;;31.03;39.99023;939.0726;;;;
2020/07/23 07:28:54;;;;;;;3.9;2;;;;;;;30.99;40.72754;939.0823;;;;
2020/07/23 07:31:20;;;;;;;4;2.1;;;;;;;32.34;40.3457;939.1092;;;;
2020/07/23 07:33:46;;;;;;;4.8;2;;;;;;;33.23;38.34473;939.0693;;;;
2020/07/23 07:36:13;;;;;;;3.9;2.1;;;;;;;33.67;37.7207;939.0151;;;;
2020/07/23 07:38:37;;;;;;;4.9;2.3;;;;;;;33.69;38.14355;938.9941;;;;
2020/07/23 07:41:02;;;;;;;4.2;2;;;;;;;34.12;37.73438;938.9733;;;;
2020/07/23 07:43:27;;;;;;;8.1;2.2;;;;;;;34.59;35.5918;938.9774;;;;
2020/07/23 07:45:52;;;;;;;5;2;;;;;;;33.27;35.23633;938.9855;;;;
2020/07/23 07:48:20;;;;;;;4.5;1.9;;;;;;;33.04;35.33789;938.9414;;;;
2020/07/23 07:50:45;;;;;;;3.7;1.8;;;;;;;31.67;38.25;938.9377;;;;
2020/07/23 07:53:10;;;;;;;3.7;2;;;;;;;31.55;37.40234;938.9146;;;;
2020/07/23 07:55:35;;;;;;;3.1;1.8;;;;;;;31.02;36.38867;938.8597;;;;
2020/07/23 07:58:02;;;;;;;6.1;2.2;;;;;;;31.57;37.89453;938.9476;;;;
2020/07/23 08:00:34;;;;;;;5.5;2.2;;;;;;;31.57;39.94141;938.9045;;;;
2020/07/23 08:03:01;;;;;;;3.6;2;;;;;;;31.95;39.00488;938.7813;;;;
2020/07/23 08:05:27;;;;;;;3.4;2;;;;;;;31.92;37.16797;938.8405;;;;
2020/07/23 08:07:52;;;;;;;4.5;2.1;;;;;;;32.23;36.77441;938.7539;;;;
2020/07/23 08:10:17;;;;;;;8.4;2;;;;;;;32.62;38.28223;938.7294;;;;
2020/07/23 08:12:44;;;;;;;6;2.2;;;;;;;33.51;36.85449;938.7151;;;;
2020/07/23 08:15:10;;;;;;;5.9;2.1;;;;;;;33.8;38.63379;938.6655;;;;
2020/07/23 08:17:35;;;;;;;4.7;2.1;;;;;;;33.46;36.96973;938.6216;;;;
2020/07/23 08:20:00;;;;;;;4.9;2.1;;;;;;;33.39;35.29297;938.6074;;;;
2020/07/23 08:22:26;;;;;;;3.8;1.8;;;;;;;33.54;36.54297;938.5011;;;;
2020/07/23 08:24:51;;;;;;;3.9;1.9;;;;;;;34.9;33.7334;938.4913;;;;
2020/07/23 08:27:16;;;;;;;3.4;2;;;;;;;35.45;33.67773;938.4211;;;;
2020/07/23 08:29:42;;;;;;;3.3;1.8;;;;;;;36.67;32.3877;938.4978;;;;
2020/07/23 08:32:07;;;;;;;4.1;1.8;;;;;;;37.35;31.42969;938.4288;;;;
2020/07/23 08:34:35;;;;;;;2.8;1.7;;;;;;;37.63;33.36523;938.391;;;;
2020/07/23 08:37:00;;;;;;;4;1.9;;;;;;;37.32;30.06934;938.4472;;;;
2020/07/23 08:39:25;;;;;;;4.2;1.9;;;;;;;36.9;34.83887;938.3906;;;;
2020/07/23 08:41:50;;;;;;;5.1;1.9;;;;;;;35.73;30.59277;938.3984;;;;
2020/07/23 08:44:16;;;;;;;3.8;1.8;;;;;;;34.97;33.58203;938.4102;;;;
2020/07/23 08:46:41;;;;;;;4.9;1.8;;;;;;;34.68;34.64648;938.377;;;;
2020/07/23 08:49:08;;;;;;;3.5;1.7;;;;;;;33.03;36.74316;938.4005;;;;
2020/07/23 08:51:33;;;;;;;4.2;1.8;;;;;;;31.47;39.15527;938.3922;;;;
2020/07/23 08:53:59;;;;;;;3.2;1.9;;;;;;;29.93;40.7041;938.3583;;;;
2020/07/23 08:56:24;;;;;;;3.8;1.9;;;;;;;28.82;44.41211;938.3555;;;;
2020/07/23 08:58:49;;;;;;;4.2;2.2;;;;;;;28.22;48.04883;938.3755;;;;
2020/07/23 09:01:19;;;;;;;5.2;2.5;;;;;;;26.52;54.42773;938.4047;;;;
2020/07/23 09:03:44;;;;;;;4.4;2.3;;;;;;;26.23;53.69336;938.4142;;;;
2020/07/23 09:06:14;;;;;;;6.3;2.8;;;;;;;27.26;52.57129;938.3725;;;;
2020/07/23 09:08:41;;;;;;;5.2;2.5;;;;;;;28.29;50.74219;938.2925;;;;
2020/07/23 09:11:12;;;;;;;6.2;2.5;;;;;;;29.44;47.45117;938.3172;;;;
2020/07/23 09:13:39;;;;;;;5.8;2.4;;;;;;;30.74;44.23047;938.3064;;;;
2020/07/23 09:16:06;;;;;;;5.1;2.4;;;;;;;32.12;41.44043;938.2428;;;;
2020/07/23 09:18:31;;;;;;;7.3;2.6;;;;;;;32.77;40.2041;938.2689;;;;
2020/07/23 09:20:56;;;;;;;6.6;2.4;;;;;;;33.26;35.41504;938.1998;;;;
2020/07/23 09:23:23;;;;;;;6;2.3;;;;;;;32.57;34.92969;938.1808;;;;
2020/07/23 09:25:48;;;;;;;4.1;2.2;;;;;;;32.87;36.79004;938.1537;;;;
2020/07/23 09:28:13;;;;;;;6.7;2.2;;;;;;;32.44;39.41895;938.1994;;;;
2020/07/23 09:30:39;;;;;;;6.1;2.3;;;;;;;32.66;38.26074;938.1863;;;;
2020/07/23 09:33:06;;;;;;;5.6;2.5;;;;;;;32.51;39.92871;938.1863;;;;
2020/07/23 09:35:31;;;;;;;5.9;2.1;;;;;;;32.53;39.19824;938.1967;;;;
2020/07/23 09:37:57;;;;;;;4;1.9;;;;;;;32.8;34.59961;938.1298;;;;
2020/07/23 09:40:22;;;;;;;3.2;1.7;;;;;;;33.13;32.31836;938.1013;;;;
2020/07/23 09:42:49;;;;;;;6.4;2.4;;;;;;;32.36;40.52637;938.0781;;;;
2020/07/23 09:45:23;;;;;;;3.7;2.1;;;;;;;32.48;34.10742;938.0433;;;;
2020/07/23 09:47:48;;;;;;;3.1;1.9;;;;;;;32.4;37.4834;937.9774;;;;
2020/07/23 09:50:19;;;;;;;5.1;1.8;;;;;;;32.15;37.52246;937.9587;;;;
2020/07/23 09:52:45;;;;;;;3.7;1.9;;;;;;;32.29;35.6875;937.8799;;;;
2020/07/23 09:55:11;;;;;;;3;1.8;;;;;;;32.7;37.43652;937.8647;;;;
2020/07/23 09:57:37;;;;;;;6.7;1.9;;;;;;;32.23;32.74609;937.8395;;;;
2020/07/23 10:00:02;;;;;;;4.4;2;;;;;;;32.62;36.38574;937.8107;;;;
2020/07/23 10:02:27;;;;;;;6.5;2;;;;;;;32.57;36.2373;937.7896;;;;
2020/07/23 10:04:52;;;;;;;6.8;2.2;;;;;;;32.67;34.55371;937.7367;;;;
2020/07/23 10:07:17;;;;;;;3.5;2;;;;;;;33.05;32.37207;937.7489;;;;
2020/07/23 10:09:43;;;;;;;5.6;2.1;;;;;;;32.82;33.79688;937.6942;;;;
2020/07/23 10:12:08;;;;;;;3.4;1.8;;;;;;;32.91;30.93359;937.6467;;;;
2020/07/23 10:14:34;;;;;;;4.3;1.9;;;;;;;32.92;30.87402;937.6024;;;;
2020/07/23 10:17:00;;;;;;;4.2;1.8;;;;;;;32.74;32.95117;937.6025;;;;
2020/07/23 10:19:26;;;;;;;3.5;1.8;;;;;;;32.73;32.48145;937.5511;;;;
2020/07/23 10:21:53;;;;;;;2.5;1.7;;;;;;;32.76;31.35547;937.5356;;;;
2020/07/23 10:24:18;;;;;;;4.8;1.9;;;;;;;32.75;34.96777;937.5264;;;;
2020/07/23 10:26:44;;;;;;;3.8;2.2;;;;;;;32.56;34.87012;937.5644;;;;
2020/07/23 10:29:09;;;;;;;5;1.9;;;;;;;32.54;37.01563;937.5273;;;;
2020/07/23 10:31:37;;;;;;;3.8;1.8;;;;;;;32.82;33.89258;937.4819;;;;
2020/07/23 10:34:02;;;;;;;3.4;2.1;;;;;;;32.97;34.94922;937.4728;;;;
2020/07/23 10:36:27;;;;;;;6.1;1.8;;;;;;;32.86;34.42383;937.4579;;;;
2020/07/23 10:38:53;;;;;;;5.4;2.1;;;;;;;32.99;33.83301;937.4211;;;;
2020/07/23 10:41:18;;;;;;;3.6;1.9;;;;;;;33.02;30.50781;937.3592;;;;
2020/07/23 10:43:43;;;;;;;5.8;1.6;;;;;;;32.88;32.57617;937.3784;;;;
2020/07/23 10:46:10;;;;;;;5.7;1.7;;;;;;;33.54;29.67773;937.2933;;;;
2020/07/23 10:48:35;;;;;;;5.1;1.9;;;;;;;33.51;31.55078;937.2351;;;;
2020/07/23 10:51:01;;;;;;;4.9;1.9;;;;;;;33.76;32.00195;937.2292;;;;
2020/07/23 10:53:26;;;;;;;4;2;;;;;;;33.43;29.94727;937.1231;;;;
2020/07/23 10:55:52;;;;;;;3.4;1.9;;;;;;;33.3;31.01953;937.098;;;;
2020/07/23 10:58:17;;;;;;;4.9;1.9;;;;;;;33.39;33.19043;937.0953;;;;
2020/07/23 11:00:46;;;;;;;4.5;2;;;;;;;33.57;30.29297;937.0335;;;;
2020/07/23 11:03:11;;;;;;;5;1.8;;;;;;;33.61;27.92578;936.9719;;;;
2020/07/23 11:05:36;;;;;;;5.4;1.8;;;;;;;33.72;29.79785;936.916;;;;
2020/07/23 11:08:02;;;;;;;3.2;1.9;;;;;;;33.62;29.40527;936.8542;;;;
2020/07/23 11:10:28;;;;;;;5.8;1.9;;;;;;;33.88;33.18945;936.8842;;;;
2020/07/23 11:12:53;;;;;;;5.8;2;;;;;;;34.22;32.69629;936.8881;;;;
2020/07/23 11:15:31;;;;;;;5.9;1.9;;;;;;;34.06;32.69727;936.8717;;;;
2020/07/23 11:17:56;;;;;;;4.9;1.8;;;;;;;33.82;31.93359;936.8468;;;;
2020/07/23 11:20:24;;;;;;;4.5;1.8;;;;;;;33.61;31.26953;936.8828;;;;
2020/07/23 11:22:49;;;;;;;4;2.1;;;;;;;33.75;31.0498;936.8489;;;;
2020/07/23 11:25:15;;;;;;;4.8;1.9;;;;;;;33.84;29.25195;936.8176;;;;
2020/07/23 11:27:40;;;;;;;4.4;1.7;;;;;;;33.76;33.01172;936.8398;;;;
2020/07/23 11:30:11;;;;;;;4.1;2.1;;;;;;;33.68;32.47754;936.8088;;;;
2020/07/23 11:32:36;;;;;;;5.8;2.1;;;;;;;33.09;31.12598;936.7438;;;;
2020/07/23 11:35:01;;;;;;;4.4;1.8;;;;;;;32.67;31.87695;936.7629;;;;
2020/07/23 11:37:30;;;;;;;3.8;2;;;;;;;32.02;36.20605;936.7311;;;;
2020/07/23 11:39:54;;;;;;;7.3;2.3;;;;;;;31.49;36.35547;936.6978;;;;
2020/07/23 11:42:21;;;;;;;5.6;2.1;;;;;;;31.04;36.70215;936.6882;;;;
2020/07/23 11:44:46;;;;;;;5;2.2;;;;;;;30.73;36.49805;936.6877;;;;
2020/07/23 11:47:11;;;;;;;5.7;2.3;;;;;;;30.99;36.25488;936.6082;;;;
2020/07/23 11:49:38;;;;;;;6.1;2.3;;;;;;;30.88;35.33887;936.6872;;;;
2020/07/23 11:52:03;;;;;;;5.1;2;;;;;;;30.87;35.07422;936.6609;;;;
2020/07/23 11:54:29;;;;;;;3.1;1.8;;;;;;;30.96;35.88184;936.6708;;;;
2020/07/23 11:56:54;;;;;;;4.8;2.2;;;;;;;31.23;37.8418;936.644;;;;
2020/07/23 11:59:21;;;;;;;3.8;2;;;;;;;30.94;38.92969;936.6492;;;;
2020/07/23 12:01:45;;;;;;;6.9;2.3;;;;;;;30.81;38.24902;936.7019;;;;
2020/07/23 12:04:11;;;;;;;4.2;2.2;;;;;;;30.48;38.56738;936.7252;;;;
2020/07/23 12:06:38;;;;;;;4.4;2;;;;;;;30.18;38.58887;936.8547;;;;
2020/07/23 12:09:03;;;;;;;5.8;2.6;;;;;;;30.01;38.88574;936.8351;;;;
2020/07/23 12:11:30;;;;;;;3.4;2;;;;;;;29.83;38.70313;936.9547;;;;
2020/07/23 12:13:55;;;;;;;7.7;2.1;;;;;;;29.49;39.49609;936.8969;;;;
2020/07/23 12:16:25;;;;;;;7.5;2.4;;;;;;;29.01;42.22852;936.924;;;;
2020/07/23 12:18:52;;;;;;;4.9;2;;;;;;;28.82;43.11523;936.9246;;;;
2020/07/23 12:21:17;;;;;;;4;2.2;;;;;;;28.34;42.16504;937.0087;;;;
2020/07/23 12:23:44;;;;;;;4;2.4;;;;;;;27.67;43.72852;937.024;;;;
2020/07/23 12:26:09;;;;;;;4.2;2.5;;;;;;;27.33;44.66797;936.973;;;;
2020/07/23 12:28:34;;;;;;;4.3;2.4;;;;;;;26.78;45.57324;937.0784;;;;
2020/07/23 12:30:59;;;;;;;4.6;2.5;;;;;;;26.72;45.06934;937.1079;;;;
2020/07/23 12:33:26;;;;;;;5.5;2.5;;;;;;;26.76;47.36035;937.1373;;;;
2020/07/23 12:35:51;;;;;;;4;2.7;;;;;;;26.65;46.45996;937.1135;;;;
2020/07/23 12:38:17;;;;;;;7.3;2.8;;;;;;;26.54;46.69824;937.118;;;;
2020/07/23 12:40:42;;;;;;;4.9;2.3;;;;;;;26.5;46.69336;937.0291;;;;
2020/07/23 12:43:08;;;;;;;5.9;2.3;;;;;;;26.73;46.74023;937.0364;;;;
2020/07/23 12:45:34;;;;;;;3.8;2.5;;;;;;;27.11;46.7334;937.033;;;;
2020/07/23 12:48:00;;;;;;;3.8;2.6;;;;;;;27.5;45.72949;937.0676;;;;
2020/07/23 12:50:25;;;;;;;6.8;2.5;;;;;;;27.45;44.65625;937.0376;;;;
2020/07/23 12:52:52;;;;;;;5.1;2.6;;;;;;;27.19;44.53613;937.0342;;;;
2020/07/23 12:55:17;;;;;;;7.4;2.7;;;;;;;26.87;45.12012;937.055;;;;
2020/07/23 12:57:43;;;;;;;6.3;2.6;;;;;;;26.83;46.20703;937.0109;;;;
2020/07/23 13:00:08;;;;;;;4.2;2.5;;;;;;;26.75;46.15039;937.0125;;;;
2020/07/23 13:02:35;;;;;;;7.4;2.6;;;;;;;26.53;47.76172;936.9554;;;;
2020/07/23 13:05:00;;;;;;;6.8;2.6;;;;;;;26.5;47.23828;936.938;;;;
2020/07/23 13:07:25;;;;;;;6.4;2.9;;;;;;;26.36;47.3291;936.9283;;;;
2020/07/23 13:09:51;;;;;;;7.5;2.7;;;;;;;26.53;48.30664;936.8614;;;;
2020/07/23 13:12:16;;;;;;;8.1;2.8;;;;;;;26.71;48.76367;936.8696;;;;
2020/07/23 13:14:41;;;;;;;4.8;2.8;;;;;;;26.89;48.34473;936.7514;;;;
2020/07/23 13:17:06;;;;;;;4.9;2.4;;;;;;;26.95;48.63672;936.819;;;;
2020/07/23 13:19:32;;;;;;;6.2;3;;;;;;;27.14;47.35254;936.7288;;;;
2020/07/23 13:21:57;;;;;;;6.8;2.9;;;;;;;27.06;47.66504;936.7047;;;;
2020/07/23 13:24:23;;;;;;;6.5;2.8;;;;;;;27;47.75195;936.6902;;;;
2020/07/23 13:26:48;;;;;;;5.9;2.8;;;;;;;26.8;47.84961;936.685;;;;
2020/07/23 13:29:16;;;;;;;7.4;2.8;;;;;;;26.44;49.04297;936.6696;;;;
2020/07/23 13:31:42;;;;;;;11.2;2.9;;;;;;;26.35;49.49512;936.7019;;;;
2020/07/23 13:34:07;;;;;;;7.3;2.8;;;;;;;26.2;51.5957;936.7883;;;;
2020/07/23 13:36:34;;;;;;;7.4;3;;;;;;;25.94;53.49414;936.8836;;;;
2020/07/23 13:38:59;;;;;;;7.1;3.3;;;;;;;25.88;55.3418;936.8699;;;;
2020/07/23 13:41:26;;;;;;;6.5;3;;;;;;;25.64;56.30469;936.9011;;;;
2020/07/23 13:43:51;;;;;;;8.7;3.2;;;;;;;25.45;57.54492;936.7897;;;;
2020/07/23 13:46:20;;;;;;;6.5;3.3;;;;;;;25.34;58.14551;936.8878;;;;
2020/07/23 13:48:45;;;;;;;6.3;3.1;;;;;;;25.15;59.06445;937.0167;;;;
2020/07/23 13:51:10;;;;;;;7.4;3.9;;;;;;;24.98;58.93457;937.1346;;;;
2020/07/23 13:53:36;;;;;;;10.2;3.9;;;;;;;24.78;61.4209;937.3287;;;;
2020/07/23 13:56:05;;;;;;;8;3.4;;;;;;;24.34;60.91309;937.5665;;;;
2020/07/23 13:58:29;;;;;;;5.3;2.8;;;;;;;24.01;59.78418;937.7683;;;;
2020/07/23 14:00:54;;;;;;;8;3.4;;;;;;;23.14;61.37207;937.9529;;;;
2020/07/23 14:03:19;;;;;;;9.7;3.6;;;;;;;22.61;67.35449;938.1289;;;;
2020/07/23 14:05:44;;;;;;;4.9;3.2;;;;;;;21.82;70.24609;938.2352;;;;
2020/07/23 14:08:10;;;;;;;7.1;3.8;;;;;;;20.91;73.8418;938.3723;;;;
2020/07/23 14:10:35;;;;;;;8.1;3.9;;;;;;;20.23;76.99902;938.4612;;;;
2020/07/23 14:13:03;;;;;;;8.1;3.9;;;;;;;19.8;77.15723;938.3101;;;;
2020/07/23 14:15:34;;;;;;;6.1;3.6;;;;;;;19.61;78.86035;938.0084;;;;
2020/07/23 14:18:00;;;;;;;9.1;3.7;;;;;;;19.86;82.03223;937.8503;;;;
2020/07/23 14:20:26;;;;;;;5.8;3.7;;;;;;;20.18;81.96387;937.9381;;;;
2020/07/23 14:22:51;;;;;;;7.2;3.1;;;;;;;20.21;79.94922;937.9672;;;;
2020/07/23 14:25:21;;;;;;;5.4;3.1;;;;;;;20.3;80.97949;937.8422;;;;
2020/07/23 14:27:46;;;;;;;4.2;2.3;;;;;;;20.32;77.46875;937.8254;;;;
2020/07/23 14:30:14;;;;;;;4.7;2.4;;;;;;;20.76;77.875;937.9612;;;;
2020/07/23 14:32:39;;;;;;;4.9;2.3;;;;;;;21.01;71.60352;937.9166;;;;
2020/07/23 14:35:12;;;;;;;6.3;2.5;;;;;;;21.45;72.77539;937.7861;;;;
2020/07/23 14:37:40;;;;;;;2.5;2;;;;;;;21.78;70.0752;937.7388;;;;
2020/07/23 14:40:05;;;;;;;2.8;1.9;;;;;;;21.84;67.01563;937.5617;;;;
2020/07/23 14:42:33;;;;;;;3.9;2.4;;;;;;;22.12;71.8291;937.5622;;;;
2020/07/23 14:44:58;;;;;;;4.6;2.1;;;;;;;22.42;68.58301;937.5139;;;;
2020/07/23 14:47:29;;;;;;;3.8;2.2;;;;;;;22.6;69.53613;937.3964;;;;
2020/07/23 14:49:54;;;;;;;4.3;2.4;;;;;;;22.7;68.04883;937.3816;;;;
2020/07/23 14:52:19;;;;;;;3.5;2.3;;;;;;;22.83;66.87207;937.3933;;;;
2020/07/23 14:54:44;;;;;;;4.5;2.4;;;;;;;22.91;67.97656;937.3975;;;;
2020/07/23 14:57:11;;;;;;;3.7;2.2;;;;;;;22.56;69.72852;937.4191;;;;
2020/07/23 14:59:36;;;;;;;4.4;1.8;;;;;;;22.51;67.90332;937.4551;;;;
2020/07/23 15:02:01;;;;;;;3.9;2;;;;;;;22.75;72.56543;937.5905;;;;
2020/07/23 15:04:26;;;;;;;3.4;2.2;;;;;;;23.03;70.89648;937.6577;;;;
2020/07/23 15:06:54;;;;;;;3.3;2.2;;;;;;;22.92;72.90918;937.6917;;;;
2020/07/23 15:09:19;;;;;;;3;2.1;;;;;;;23.02;71.43359;937.7789;;;;
2020/07/23 15:11:44;;;;;;;3.3;1.7;;;;;;;23.19;68.93652;937.9054;;;;
2020/07/23 15:14:10;;;;;;;2.9;1.9;;;;;;;23.09;70.35449;938.0549;;;;
2020/07/23 15:16:35;;;;;;;3.4;1.9;;;;;;;23.22;69.61035;938.1781;;;;
2020/07/23 15:19:00;;;;;;;4.5;2.2;;;;;;;23.15;68.89355;938.1354;;;;
2020/07/23 15:21:26;;;;;;;5.2;2.2;;;;;;;22.72;69.77734;938.2122;;;;
2020/07/23 15:23:51;;;;;;;5.4;2.4;;;;;;;22.56;70.20996;938.1407;;;;
2020/07/23 15:26:18;;;;;;;4.5;2.2;;;;;;;22.66;68.47754;938.0236;;;;
2020/07/23 15:28:43;;;;;;;4.2;2.4;;;;;;;22.5;70.10742;937.9871;;;;
2020/07/23 15:31:12;;;;;;;4.5;2.1;;;;;;;22.39;70.08984;937.9866;;;;
2020/07/23 15:33:37;;;;;;;3;2.1;;;;;;;22.3;68.63379;937.968;;;;
2020/07/23 15:36:03;;;;;;;4.2;2.4;;;;;;;22.34;69.30762;937.8887;;;;
2020/07/23 15:38:28;;;;;;;4.8;2.5;;;;;;;22.27;70.64648;937.9366;;;;
2020/07/23 15:40:56;;;;;;;4.7;2.4;;;;;;;22.23;69.93555;937.9283;;;;
2020/07/23 15:43:21;;;;;;;5;2.2;;;;;;;22.19;69.14453;937.884;;;;
2020/07/23 15:45:51;;;;;;;3.5;2.3;;;;;;;22.38;68.85742;937.8362;;;;
2020/07/23 15:48:16;;;;;;;3.5;2.3;;;;;;;22.47;69.14063;937.8039;;;;
2020/07/23 15:50:42;;;;;;;4.7;2;;;;;;;22.39;69.2207;937.7872;;;;
2020/07/23 15:53:07;;;;;;;5.2;2.4;;;;;;;22.34;72.26367;937.7664;;;;
2020/07/23 15:55:33;;;;;;;3.8;2.5;;;;;;;22.47;71.37012;937.7391;;;;
2020/07/23 15:58:01;;;;;;;4.6;2.3;;;;;;;22.43;72.46582;937.6487;;;;
2020/07/23 16:00:35;;;;;;;4.7;2.1;;;;;;;22.36;69.55664;937.5854;;;;
2020/07/23 16:03:01;;;;;;;4.7;2.1;;;;;;;22.52;70.19238;937.553;;;;
2020/07/23 16:05:26;;;;;;;3.1;2.2;;;;;;;22.63;67.55859;937.5758;;;;
2020/07/23 16:07:51;;;;;;;3.3;1.9;;;;;;;22.59;67.42383;937.4631;;;;
2020/07/23 16:10:16;;;;;;;3;2.1;;;;;;;22.68;67.45996;937.3798;;;;
2020/07/23 16:12:43;;;;;;;4;2.3;;;;;;;22.81;66.7168;937.3033;;;;
2020/07/23 16:15:08;;;;;;;4.2;2.5;;;;;;;22.9;66.23535;937.3281;;;;
2020/07/23 16:17:34;;;;;;;3.5;2.5;;;;;;;22.93;63.14063;937.312;;;;
2020/07/23 16:20:00;;;;;;;4.3;2.3;;;;;;;22.93;62.24707;937.2823;;;;
2020/07/23 16:22:26;;;;;;;4.1;2.5;;;;;;;23.08;63.18457;937.3147;;;;
2020/07/23 16:24:51;;;;;;;4;2.2;;;;;;;22.95;62.71875;937.3383;;;;
2020/07/23 16:27:16;;;;;;;4.4;2.4;;;;;;;22.86;63.87012;937.2912;;;;
2020/07/23 16:29:46;;;;;;;2.6;2;;;;;;;22.69;63.75195;937.282;;;;
2020/07/23 16:32:12;;;;;;;2.9;2.4;;;;;;;22.69;67.07324;937.2651;;;;
2020/07/23 16:34:37;;;;;;;3.8;2.6;;;;;;;22.69;67.32129;937.2364;;;;
2020/07/23 16:37:02;;;;;;;5.2;2.3;;;;;;;22.58;63.48926;937.2292;;;;
2020/07/23 16:39:29;;;;;;;4.5;2.4;;;;;;;22.54;64.54004;937.1235;;;;
2020/07/23 16:41:54;;;;;;;5.4;2.6;;;;;;;22.49;66.64355;937.0137;;;;
2020/07/23 16:44:21;;;;;;;5.5;2.9;;;;;;;22.46;66.8623;936.9838;;;;
2020/07/23 16:46:46;;;;;;;6;2.5;;;;;;;22.56;67.26563;936.8475;;;;
2020/07/23 16:49:11;;;;;;;5.8;2.7;;;;;;;22.65;67.12695;936.884;;;;
2020/07/23 16:51:37;;;;;;;5.8;2.6;;;;;;;22.54;68.29395;936.8948;;;;
2020/07/23 16:54:03;;;;;;;5.5;2.5;;;;;;;22.58;70.22559;936.8452;;;;
2020/07/23 16:56:28;;;;;;;3.9;2.7;;;;;;;22.59;70.29785;936.8455;;;;
2020/07/23 16:58:53;;;;;;;4.8;2.9;;;;;;;22.34;69.16699;936.8583;;;;
2020/07/23 17:01:18;;;;;;;4;3;;;;;;;22.17;70.33789;936.806;;;;
2020/07/23 17:03:43;;;;;;;7.1;3.3;;;;;;;22.08;70.62695;936.7349;;;;
2020/07/23 17:06:08;;;;;;;4.3;2.9;;;;;;;22.23;71.07324;936.6873;;;;
2020/07/23 17:08:34;;;;;;;5.6;2.8;;;;;;;22.09;69.38867;936.7083;;;;
2020/07/23 17:11:00;;;;;;;4.9;2.9;;;;;;;22.18;71.79102;936.7189;;;;
2020/07/23 17:13:25;;;;;;;6.5;2.7;;;;;;;22.01;71.83496;936.7238;;;;
2020/07/23 17:15:50;;;;;;;4.7;2.8;;;;;;;22.03;72.43652;936.6934;;;;
2020/07/23 17:18:15;;;;;;;3.4;2.7;;;;;;;21.88;70.61816;936.7117;;;;
2020/07/23 17:20:42;;;;;;;6.7;2.8;;;;;;;21.73;70.99219;936.6716;;;;
2020/07/23 17:23:07;;;;;;;4.9;3.1;;;;;;;21.68;71.18359;936.6627;;;;
2020/07/23 17:25:34;;;;;;;7.7;2.8;;;;;;;21.44;71.56641;936.6936;;;;
2020/07/23 17:27:59;;;;;;;4.9;3;;;;;;;21.25;72.97656;936.6795;;;;
2020/07/23 17:30:25;;;;;;;6;2.9;;;;;;;21.22;73.88477;936.6259;;;;
2020/07/23 17:32:50;;;;;;;5.8;2.7;;;;;;;21.31;74.56543;936.6021;;;;
2020/07/23 17:35:22;;;;;;;4.8;2.9;;;;;;;21.13;75.8916;936.5526;;;;
2020/07/23 17:37:47;;;;;;;6.2;2.6;;;;;;;21.34;76.4082;936.5678;;;;
2020/07/23 17:40:15;;;;;;;4.3;2.9;;;;;;;21.42;76.99414;936.587;;;;
2020/07/23 17:42:40;;;;;;;5.6;2.6;;;;;;;21.05;75.30566;936.582;;;;
2020/07/23 17:45:05;;;;;;;3.3;2.5;;;;;;;20.99;75.58594;936.6188;;;;
2020/07/23 17:47:35;;;;;;;4.4;2.4;;;;;;;21.03;77.03223;936.6071;;;;
2020/07/23 17:50:00;;;;;;;4.7;2.8;;;;;;;20.93;77.79883;936.6619;;;;
2020/07/23 17:52:28;;;;;;;5.3;2.7;;;;;;;20.84;79.37402;936.6761;;;;
2020/07/23 17:54:57;;;;;;;5.2;2.5;;;;;;;20.91;79.1416;936.6195;;;;
2020/07/23 17:57:21;;;;;;;4.7;2.7;;;;;;;21.04;77.46777;936.6114;;;;
2020/07/23 17:59:51;;;;;;;4.2;2.4;;;;;;;21.06;77.21387;936.5298;;;;
2020/07/23 18:02:17;;;;;;;6.1;2.8;;;;;;;21.13;76.89746;936.5909;;;;
2020/07/23 18:04:42;;;;;;;3.2;2.3;;;;;;;21.1;75.4209;936.6589;;;;
2020/07/23 18:07:08;;;;;;;5.1;2.5;;;;;;;20.84;76.13574;936.6072;;;;
2020/07/23 18:09:34;;;;;;;2.7;2.2;;;;;;;20.77;76.23828;936.5803;;;;
2020/07/23 18:12:06;;;;;;;3;2.4;;;;;;;20.79;77.1084;936.5018;;;;
2020/07/23 18:14:32;;;;;;;4.7;2.4;;;;;;;20.85;77.35156;936.497;;;;
2020/07/23 18:16:57;;;;;;;4.6;2.5;;;;;;;20.93;77.66992;936.5195;;;;
2020/07/23 18:19:22;;;;;;;5.4;3;;;;;;;20.95;76.72754;936.5221;;;;
2020/07/23 18:21:48;;;;;;;3.6;2.6;;;;;;;20.72;76.88574;936.5617;;;;
2020/07/23 18:24:13;;;;;;;4.8;2.4;;;;;;;20.46;78.06836;936.5873;;;;
2020/07/23 18:26:41;;;;;;;3.9;2.4;;;;;;;20.35;77.6748;936.5229;;;;
2020/07/23 18:29:06;;;;;;;3.1;2.5;;;;;;;20.41;77.59082;936.5693;;;;
2020/07/23 18:31:31;;;;;;;3.7;2.8;;;;;;;20.11;79.91992;936.5389;;;;
2020/07/23 18:33:56;;;;;;;5.9;2.3;;;;;;;20.12;80.23438;936.5502;;;;
2020/07/23 18:36:23;;;;;;;4.1;2.6;;;;;;;20.27;79.91211;936.601;;;;
2020/07/23 18:38:49;;;;;;;3.7;2.5;;;;;;;20.39;79.98047;936.6223;;;;
2020/07/23 18:41:14;;;;;;;4.2;2.7;;;;;;;20.5;79.49805;936.7148;;;;
2020/07/23 18:43:39;;;;;;;3.8;2.4;;;;;;;20.5;79.3125;936.7842;;;;
2020/07/23 18:46:04;;;;;;;4.7;2.4;;;;;;;20.42;78.63086;936.8456;;;;
2020/07/23 18:48:29;;;;;;;4.4;2.5;;;;;;;20.06;79.94531;936.7936;;;;
2020/07/23 18:50:56;;;;;;;4.6;2.5;;;;;;;19.99;79.7002;936.8098;;;;
2020/07/23 18:53:21;;;;;;;4.3;2.4;;;;;;;19.93;78.7207;936.7283;;;;
2020/07/23 18:55:46;;;;;;;4.9;2.5;;;;;;;19.98;79.13672;936.7689;;;;
2020/07/23 18:58:11;;;;;;;4.8;2.8;;;;;;;19.97;80.11328;936.7774;;;;
2020/07/23 19:00:36;;;;;;;5.2;2.8;;;;;;;20.07;80.59961;936.7148;;;;
2020/07/23 19:03:01;;;;;;;3.8;2.8;;;;;;;20.26;79.42188;936.7483;;;;
2020/07/23 19:05:26;;;;;;;3.8;2.7;;;;;;;20.39;80.44922;936.8616;;;;
2020/07/23 19:07:51;;;;;;;4.8;2.8;;;;;;;20.32;80.00195;936.9034;;;;
2020/07/23 19:10:17;;;;;;;5.2;2.6;;;;;;;20.18;80.74805;936.9372;;;;
2020/07/23 19:12:44;;;;;;;4.3;2.7;;;;;;;20.05;80.96973;936.8892;;;;
2020/07/23 19:15:16;;;;;;;3.8;2.5;;;;;;;20;80.96191;936.866;;;;
2020/07/23 19:17:33;;;;;;;3.8;2.8;;;;;;;20.09;80.14844;936.8904;;;;
2020/07/23 19:19:59;;;;;;;3.9;2.5;;;;;;;20.14;79.64453;936.9205;;;;
2020/07/23 19:22:24;;;;;;;3.2;2.7;;;;;;;20.1;78.90137;936.8789;;;;
2020/07/23 19:24:51;;;;;;;4.7;2.9;;;;;;;20.18;79.5459;936.7852;;;;
2020/07/23 19:27:16;;;;;;;5.6;2.9;;;;;;;20.21;78.92188;936.9412;;;;
2020/07/23 19:29:43;;;;;;;4.4;2.5;;;;;;;20.14;78.83887;936.9302;;;;
2020/07/23 19:32:08;;;;;;;4.6;3;;;;;;;20.25;79.32422;936.9266;;;;
2020/07/23 19:34:34;;;;;;;6.1;2.8;;;;;;;20.24;78.55371;936.8452;;;;
2020/07/23 19:37:00;;;;;;;5.6;3;;;;;;;20.25;78.60156;936.9313;;;;
2020/07/23 19:39:25;;;;;;;3.4;2.7;;;;;;;20.28;78.45508;936.9548;;;;
2020/07/23 19:41:51;;;;;;;6.2;2.7;;;;;;;20.24;78.58887;936.9436;;;;
2020/07/23 19:44:16;;;;;;;3.2;2.6;;;;;;;20.29;78.46777;936.9285;;;;
2020/07/23 19:46:41;;;;;;;7.1;2.8;;;;;;;20.29;78.93457;936.9222;;;;
2020/07/23 19:49:08;;;;;;;4.5;3.1;;;;;;;20.27;79.21387;936.9428;;;;
2020/07/23 19:51:32;;;;;;;4.3;3.4;;;;;;;20.2;79.06055;936.9016;;;;
2020/07/23 19:53:57;;;;;;;4.3;3.4;;;;;;;20.15;79.05078;936.9211;;;;
2020/07/23 19:56:23;;;;;;;6.8;3.6;;;;;;;20.16;79.2041;936.9183;;;;
2020/07/23 19:58:47;;;;;;;5.7;4.3;;;;;;;20.19;78.88184;936.8867;;;;
2020/07/23 20:01:13;;;;;;;5;3.3;;;;;;;20.04;79.04297;936.8708;;;;
2020/07/23 20:03:38;;;;;;;7;3.4;;;;;;;19.89;79.96094;936.926;;;;
2020/07/23 20:06:03;;;;;;;6.9;4.4;;;;;;;19.78;80.37207;936.8915;;;;
2020/07/23 20:08:28;;;;;;;4.6;3;;;;;;;19.66;80.21094;936.8812;;;;
2020/07/23 20:10:54;;;;;;;4.6;3.2;;;;;;;19.62;80.70605;936.7974;;;;
2020/07/23 20:13:20;;;;;;;5;3;;;;;;;19.63;80.46094;936.84;;;;
2020/07/23 20:15:44;;;;;;;4.7;2.7;;;;;;;19.56;79.92383;936.8588;;;;
2020/07/23 20:18:11;;;;;;;4.3;2.9;;;;;;;19.58;80.41797;936.837;;;;
2020/07/23 20:20:36;;;;;;;5.6;3.1;;;;;;;19.5;81.38184;936.8412;;;;
2020/07/23 20:23:01;;;;;;;4.9;2.9;;;;;;;19.15;82.9707;936.8887;;;;
2020/07/23 20:25:31;;;;;;;4.4;3.4;;;;;;;19.07;83.73535;936.936;;;;
2020/07/23 20:27:56;;;;;;;6.9;3.5;;;;;;;19.07;83.03711;936.9167;;;;
2020/07/23 20:30:23;;;;;;;5.3;3.5;;;;;;;19.07;82.6875;936.8521;;;;
2020/07/23 20:32:48;;;;;;;6.5;4;;;;;;;19.05;82.46289;936.8323;;;;
2020/07/23 20:35:13;;;;;;;6.8;3.7;;;;;;;19.04;83.13672;936.8867;;;;
2020/07/23 20:37:38;;;;;;;5.5;3.2;;;;;;;19.08;83.58594;936.8842;;;;
2020/07/23 20:40:03;;;;;;;8.9;3.3;;;;;;;19;84.02637;936.9189;;;;
2020/07/23 20:42:28;;;;;;;4.1;3.1;;;;;;;18.94;83.53711;936.8438;;;;
2020/07/23 20:44:54;;;;;;;7.5;3.7;;;;;;;18.71;84.78418;936.7977;;;;
2020/07/23 20:47:19;;;;;;;4.9;3.9;;;;;;;18.67;84.40625;936.7726;;;;